sensor_id;sensor_type;location;lat;lon;timestamp;pressure;altitude;pressure_sealevel;temperature;humidity
54546;BME280;40444;45.184;9.850;2022-12-07T18:09:35;100617.09;;;3.21;100.00
54546;BME280;40444;45.184;9.850;2022-12-07T18:12:04;100614.00;;;3.28;100.00
54546;BME280;40444;45.184;9.850;2022-12-07T18:14:33;100613.84;;;3.46;100.00
54546;BME280;40444;45.184;9.850;2022-12-07T18:17:02;100619.28;;;3.59;100.00
54546;BME280;40444;45.184;9.850;2022-12-07T18:19:31;100622.22;;;3.68;100.00
54546;BME280;40444;45.184;9.850;2022-12-07T18:22:00;100620.03;;;3.61;100.00
54546;BME280;40444;45.184;9.850;2022-12-07T18:24:28;100626.28;;;3.74;100.00
54546;BME280;40444;45.184;9.850;2022-12-07T18:27:04;100625.72;;;3.83;100.00
54546;BME280;40444;45.184;9.850;2022-12-07T18:29:34;100625.09;;;3.94;100.00
54546;BME280;40444;45.184;9.850;2022-12-07T18:32:02;100624.59;;;4.01;100.00
54546;BME280;40444;45.184;9.850;2022-12-07T18:34:32;100624.31;;;4.06;100.00
54546;BME280;40444;45.184;9.850;2022-12-07T18:37:01;100621.47;;;4.09;100.00
54546;BME280;40444;45.184;9.850;2022-12-07T18:39:29;100627.44;;;4.13;100.00
54546;BME280;40444;45.184;9.850;2022-12-07T18:42:00;100626.22;;;4.04;100.00
54546;BME280;40444;45.184;9.850;2022-12-07T18:44:29;100631.63;;;4.02;100.00
54546;BME280;40444;45.184;9.850;2022-12-07T18:46:58;100627.72;;;4.08;100.00
54546;BME280;40444;45.184;9.850;2022-12-07T18:49:26;100623.09;;;4.12;100.00
54546;BME280;40444;45.184;9.850;2022-12-07T18:51:55;100618.25;;;4.18;100.00
54546;BME280;40444;45.184;9.850;2022-12-07T18:54:24;100622.31;;;4.24;100.00
54546;BME280;40444;45.184;9.850;2022-12-07T18:56:52;100633.88;;;4.23;100.00
54546;BME280;40444;45.184;9.850;2022-12-07T18:59:22;100630.94;;;4.13;100.00
54546;BME280;40444;45.184;9.850;2022-12-07T19:02:09;100632.63;;;4.14;100.00
54546;BME280;40444;45.184;9.850;2022-12-07T19:04:39;100636.25;;;4.13;100.00
54546;BME280;40444;45.184;9.850;2022-12-07T19:07:07;100629.81;;;4.17;100.00
54546;BME280;40444;45.184;9.850;2022-12-07T19:09:35;100634.16;;;4.18;100.00
54546;BME280;40444;45.184;9.850;2022-12-07T19:12:03;100628.78;;;4.20;100.00
54546;BME280;40444;45.184;9.850;2022-12-07T19:14:34;100635.78;;;4.21;100.00
54546;BME280;40444;45.184;9.850;2022-12-07T19:17:06;100643.91;;;4.18;100.00
54546;BME280;40444;45.184;9.850;2022-12-07T19:19:38;100652.72;;;4.18;100.00
54546;BME280;40444;45.184;9.850;2022-12-07T19:22:07;100646.84;;;4.13;100.00
54546;BME280;40444;45.184;9.850;2022-12-07T19:24:36;100650.34;;;3.99;100.00
54546;BME280;40444;45.184;9.850;2022-12-07T19:27:05;100648.44;;;4.01;100.00
54546;BME280;40444;45.184;9.850;2022-12-07T19:29:35;100649.00;;;3.92;100.00
54546;BME280;40444;45.184;9.850;2022-12-07T19:32:04;100647.97;;;3.80;100.00
54546;BME280;40444;45.184;9.850;2022-12-07T19:34:33;100636.59;;;3.78;100.00
54546;BME280;40444;45.184;9.850;2022-12-07T19:37:01;100641.50;;;3.70;100.00
54546;BME280;40444;45.184;9.850;2022-12-07T19:39:30;100643.72;;;3.78;100.00
54546;BME280;40444;45.184;9.850;2022-12-07T19:41:58;100641.84;;;3.80;100.00
54546;BME280;40444;45.184;9.850;2022-12-07T19:44:27;100652.34;;;3.82;100.00
54546;BME280;40444;45.184;9.850;2022-12-07T19:46:58;100647.03;;;3.67;100.00
54546;BME280;40444;45.184;9.850;2022-12-07T19:49:33;100660.47;;;3.78;100.00
54546;BME280;40444;45.184;9.850;2022-12-07T19:52:04;100648.44;;;3.87;100.00
54546;BME280;40444;45.184;9.850;2022-12-07T19:54:34;100657.75;;;3.94;100.00
54546;BME280;40444;45.184;9.850;2022-12-07T19:57:04;100653.84;;;4.00;100.00
54546;BME280;40444;45.184;9.850;2022-12-07T19:59:34;100656.13;;;4.06;100.00
54546;BME280;40444;45.184;9.850;2022-12-07T20:02:03;100657.63;;;4.10;100.00
54546;BME280;40444;45.184;9.850;2022-12-07T20:04:32;100660.13;;;4.13;100.00
54546;BME280;40444;45.184;9.850;2022-12-07T20:07:03;100657.28;;;4.16;100.00
54546;BME280;40444;45.184;9.850;2022-12-07T20:09:31;100659.66;;;4.21;100.00
54546;BME280;40444;45.184;9.850;2022-12-07T20:12:00;100661.44;;;4.20;100.00
54546;BME280;40444;45.184;9.850;2022-12-07T20:14:54;100666.34;;;4.26;100.00
54546;BME280;40444;45.184;9.850;2022-12-07T20:17:23;100665.34;;;4.29;100.00
54546;BME280;40444;45.184;9.850;2022-12-07T20:19:51;100672.34;;;4.30;100.00
54546;BME280;40444;45.184;9.850;2022-12-07T20:22:20;100661.78;;;4.28;100.00
54546;BME280;40444;45.184;9.850;2022-12-07T20:24:48;100668.63;;;4.32;100.00
54546;BME280;40444;45.184;9.850;2022-12-07T20:27:17;100671.19;;;4.34;100.00
54546;BME280;40444;45.184;9.850;2022-12-07T20:29:46;100676.41;;;4.36;100.00
54546;BME280;40444;45.184;9.850;2022-12-07T20:32:16;100675.38;;;4.38;100.00
54546;BME280;40444;45.184;9.850;2022-12-07T20:34:44;100676.97;;;4.41;100.00
54546;BME280;40444;45.184;9.850;2022-12-07T20:37:13;100674.31;;;4.41;100.00
54546;BME280;40444;45.184;9.850;2022-12-07T20:39:42;100675.16;;;4.41;100.00
54546;BME280;40444;45.184;9.850;2022-12-07T20:42:11;100674.41;;;4.39;100.00
54546;BME280;40444;45.184;9.850;2022-12-07T20:44:57;100672.91;;;4.35;100.00
54546;BME280;40444;45.184;9.850;2022-12-07T20:47:30;100671.94;;;4.36;100.00
54546;BME280;40444;45.184;9.850;2022-12-07T20:50:03;100672.91;;;4.35;100.00
54546;BME280;40444;45.184;9.850;2022-12-07T20:52:36;100665.59;;;4.39;100.00
54546;BME280;40444;45.184;9.850;2022-12-07T20:55:05;100664.75;;;4.38;100.00
54546;BME280;40444;45.184;9.850;2022-12-07T20:57:33;100667.59;;;4.35;100.00
54546;BME280;40444;45.184;9.850;2022-12-07T21:00:05;100670.44;;;4.32;100.00
54546;BME280;40444;45.184;9.850;2022-12-07T21:02:38;100666.84;;;4.33;100.00
54546;BME280;40444;45.184;9.850;2022-12-07T21:05:07;100657.09;;;4.34;100.00
54546;BME280;40444;45.184;9.850;2022-12-07T21:07:36;100650.94;;;4.33;100.00
54546;BME280;40444;45.184;9.850;2022-12-07T21:10:05;100646.47;;;4.34;100.00
54546;BME280;40444;45.184;9.850;2022-12-07T21:12:34;100656.31;;;4.31;100.00
54546;BME280;40444;45.184;9.850;2022-12-07T21:15:04;100652.69;;;4.32;100.00
54546;BME280;40444;45.184;9.850;2022-12-07T21:17:33;100656.13;;;4.35;100.00
54546;BME280;40444;45.184;9.850;2022-12-07T21:20:02;100644.56;;;4.36;100.00
54546;BME280;40444;45.184;9.850;2022-12-07T21:22:30;100649.03;;;4.35;100.00
54546;BME280;40444;45.184;9.850;2022-12-07T21:24:59;100650.94;;;4.33;100.00
54546;BME280;40444;45.184;9.850;2022-12-07T21:27:28;100652.16;;;4.27;100.00
54546;BME280;40444;45.184;9.850;2022-12-07T21:29:56;100647.69;;;4.28;100.00
54546;BME280;40444;45.184;9.850;2022-12-07T21:32:24;100653.22;;;4.25;100.00
54546;BME280;40444;45.184;9.850;2022-12-07T21:34:52;100653.00;;;4.28;100.00
54546;BME280;40444;45.184;9.850;2022-12-07T21:37:20;100653.75;;;4.30;100.00
54546;BME280;40444;45.184;9.850;2022-12-07T21:39:48;100659.75;;;4.34;100.00
54546;BME280;40444;45.184;9.850;2022-12-07T21:42:16;100666.63;;;4.36;100.00
54546;BME280;40444;45.184;9.850;2022-12-07T21:44:43;100646.25;;;4.37;100.00
54546;BME280;40444;45.184;9.850;2022-12-07T21:47:12;100654.13;;;4.38;100.00
54546;BME280;40444;45.184;9.850;2022-12-07T21:49:40;100655.84;;;4.39;100.00
54546;BME280;40444;45.184;9.850;2022-12-07T21:52:08;100661.44;;;4.35;100.00
54546;BME280;40444;45.184;9.850;2022-12-07T21:54:36;100655.34;;;4.32;100.00
54546;BME280;40444;45.184;9.850;2022-12-07T21:57:04;100656.50;;;4.28;100.00
54546;BME280;40444;45.184;9.850;2022-12-07T21:59:32;100666.53;;;4.23;100.00
54546;BME280;40444;45.184;9.850;2022-12-07T22:02:00;100663.44;;;4.17;100.00
54546;BME280;40444;45.184;9.850;2022-12-07T22:04:29;100666.38;;;4.12;100.00
54546;BME280;40444;45.184;9.850;2022-12-07T22:06:57;100667.50;;;4.08;100.00
54546;BME280;40444;45.184;9.850;2022-12-07T22:09:25;100671.00;;;4.09;100.00
54546;BME280;40444;45.184;9.850;2022-12-07T22:11:57;100668.75;;;4.02;100.00
54546;BME280;40444;45.184;9.850;2022-12-07T22:14:25;100675.06;;;4.00;100.00
54546;BME280;40444;45.184;9.850;2022-12-07T22:17:12;100666.72;;;3.92;100.00
54546;BME280;40444;45.184;9.850;2022-12-07T22:19:41;100667.28;;;3.97;100.00
54546;BME280;40444;45.184;9.850;2022-12-07T22:22:13;100669.03;;;3.98;100.00
54546;BME280;40444;45.184;9.850;2022-12-07T22:24:42;100655.66;;;3.99;100.00
54546;BME280;40444;45.184;9.850;2022-12-07T22:27:11;100666.56;;;3.95;100.00
54546;BME280;40444;45.184;9.850;2022-12-07T22:29:41;100660.28;;;3.96;100.00
54546;BME280;40444;45.184;9.850;2022-12-07T22:32:09;100666.44;;;3.96;100.00
54546;BME280;40444;45.184;9.850;2022-12-07T22:34:58;100671.56;;;3.99;100.00
54546;BME280;40444;45.184;9.850;2022-12-07T22:37:28;100675.91;;;4.00;100.00
54546;BME280;40444;45.184;9.850;2022-12-07T22:39:56;100658.13;;;4.02;100.00
54546;BME280;40444;45.184;9.850;2022-12-07T22:42:25;100663.34;;;4.04;100.00
54546;BME280;40444;45.184;9.850;2022-12-07T22:44:53;100664.00;;;4.08;100.00
54546;BME280;40444;45.184;9.850;2022-12-07T22:47:21;100679.06;;;4.07;100.00
54546;BME280;40444;45.184;9.850;2022-12-07T22:49:50;100672.69;;;4.10;100.00
54546;BME280;40444;45.184;9.850;2022-12-07T22:52:18;100657.47;;;4.13;100.00
54546;BME280;40444;45.184;9.850;2022-12-07T22:54:46;100662.66;;;4.15;100.00
54546;BME280;40444;45.184;9.850;2022-12-07T22:57:15;100661.75;;;4.16;100.00
54546;BME280;40444;45.184;9.850;2022-12-07T22:59:43;100660.50;;;4.07;100.00
54546;BME280;40444;45.184;9.850;2022-12-07T23:02:12;100653.13;;;4.12;100.00
54546;BME280;40444;45.184;9.850;2022-12-07T23:04:41;100653.78;;;4.16;100.00
54546;BME280;40444;45.184;9.850;2022-12-07T23:07:10;100656.22;;;4.19;100.00
54546;BME280;40444;45.184;9.850;2022-12-07T23:09:39;100654.22;;;4.22;100.00
54546;BME280;40444;45.184;9.850;2022-12-07T23:12:08;100656.22;;;4.19;100.00
54546;BME280;40444;45.184;9.850;2022-12-07T23:14:56;100655.09;;;4.23;100.00
54546;BME280;40444;45.184;9.850;2022-12-07T23:17:24;100654.13;;;4.24;100.00
54546;BME280;40444;45.184;9.850;2022-12-07T23:19:52;100647.97;;;4.23;100.00
54546;BME280;40444;45.184;9.850;2022-12-07T23:22:23;100646.09;;;4.25;100.00
54546;BME280;40444;45.184;9.850;2022-12-07T23:24:51;100648.63;;;4.27;100.00
54546;BME280;40444;45.184;9.850;2022-12-07T23:27:19;100648.63;;;4.27;100.00
54546;BME280;40444;45.184;9.850;2022-12-07T23:29:48;100647.69;;;4.28;100.00
54546;BME280;40444;45.184;9.850;2022-12-07T23:32:16;100645.03;;;4.28;100.00
54546;BME280;40444;45.184;9.850;2022-12-07T23:34:45;100637.75;;;4.31;100.00
54546;BME280;40444;45.184;9.850;2022-12-07T23:37:13;100645.16;;;4.26;100.00
54546;BME280;40444;45.184;9.850;2022-12-07T23:39:41;100639.09;;;4.24;100.00
54546;BME280;40444;45.184;9.850;2022-12-07T23:42:09;100639.09;;;4.24;100.00
54546;BME280;40444;45.184;9.850;2022-12-07T23:44:39;100640.78;;;4.25;100.00
54546;BME280;40444;45.184;9.850;2022-12-07T23:47:07;100628.78;;;4.20;100.00
54546;BME280;40444;45.184;9.850;2022-12-07T23:49:36;100634.25;;;4.17;100.00
54546;BME280;40444;45.184;9.850;2022-12-07T23:52:04;100631.06;;;3.97;100.00
54546;BME280;40444;45.184;9.850;2022-12-07T23:54:33;100629.44;;;4.09;100.00
54546;BME280;40444;45.184;9.850;2022-12-07T23:57:01;100630.84;;;4.15;100.00
54546;BME280;40444;45.184;9.850;2022-12-07T23:59:29;100629.13;;;4.14;100.00
